Eric Mcallister — WDH6317 — position and weather

sailwx.info

Track history (hours):
 
Tides and Currents Weather Stations Pressure Air Temp Water Temp Dewpoint Dewpoint Depression Visibility Wind Speed Wind Dir Waves Ship Positions

Eric Mcallister

Owner: McAllister Towing & Transportation, Staten Island, NY. More information available from US FCC via Universal Licensing System and Coast Guard Vessel Documentation Center.

Last reported at 2017-Oct-22 21:00 UTC. Time now 2017-Oct-22 21:21 UTC.
Position N 40°38' W 074°10'.

Length 30 m; draft 4.4 m.

Type: Tug. MMSI: 367636710.

Date/timePositionNaut miles runAvg speedWind from/ knotsBaromVisibWave heightAir tempDewpointWater temp
2017-Oct-22 21:00N 40°38' W 074°10'0 0.0
2017-Oct-22 20:29N 40°38' W 074°10'0 0.0
2017-Oct-22 20:00N 40°38' W 074°10'0 0.0
2017-Oct-22 19:30N 40°38' W 074°10'0 0.0
2017-Oct-22 19:00N 40°38' W 074°10'0 0.0
2017-Oct-22 18:29N 40°38' W 074°10'0 0.0
2017-Oct-22 17:59N 40°38' W 074°10'0 0.0
2017-Oct-22 17:30N 40°38' W 074°10'0 0.0
2017-Oct-22 17:00N 40°38' W 074°10'0 0.0
2017-Oct-22 16:30N 40°38' W 074°10'0 0.0
2017-Oct-22 16:00N 40°38' W 074°10'0 0.0
2017-Oct-22 15:29N 40°38' W 074°10'0 0.0
2017-Oct-22 15:00N 40°38' W 074°10'0 0.0
2017-Oct-22 14:30N 40°38' W 074°10'0 0.0
2017-Oct-22 14:00N 40°38' W 074°10'0 0.0
2017-Oct-22 13:30N 40°38' W 074°10'0 0.0
2017-Oct-22 13:00N 40°38' W 074°10'0 0.0
2017-Oct-22 12:30N 40°38' W 074°10'0 0.0
2017-Oct-22 12:00N 40°38' W 074°10'0 0.0
2017-Oct-22 11:30N 40°38' W 074°10'0 0.7
2017-Oct-22 11:00N 40°39' W 074°10'2 4.4
2017-Oct-22 10:31N 40°41' W 074°09'0 1.0
2017-Oct-22 10:00N 40°41' W 074°08'2 4.0
2017-Oct-22 09:29N 40°39' W 074°09'4 7.5
2017-Oct-22 09:00N 40°39' W 074°04'0 0.6
2017-Oct-22 08:30N 40°39' W 074°05'4 7.9
2017-Oct-22 08:00N 40°38' W 074°10'0 0.0
2017-Oct-22 07:30N 40°38' W 074°10'0 0.0
2017-Oct-22 07:00N 40°38' W 074°10'0 0.0
2017-Oct-22 06:30N 40°38' W 074°10'0 0.0
2017-Oct-22 05:59N 40°38' W 074°10'0 0.0
2017-Oct-22 05:30N 40°38' W 074°10'0 0.0
2017-Oct-22 05:00N 40°38' W 074°10'0 0.0
2017-Oct-22 04:30N 40°38' W 074°10'0 0.0
2017-Oct-22 04:00N 40°38' W 074°10'0 0.0
2017-Oct-22 03:30N 40°38' W 074°10'0 0.0
2017-Oct-22 02:59N 40°38' W 074°10'0 0.0
2017-Oct-22 02:30N 40°38' W 074°10'0 0.0
2017-Oct-22 02:00N 40°38' W 074°10'0 0.0
2017-Oct-22 01:30N 40°38' W 074°10'0 0.0
2017-Oct-22 01:00N 40°38' W 074°10'0 0.0
2017-Oct-22 00:29N 40°38' W 074°10'0 0.0
2017-Oct-22 00:00N 40°38' W 074°10'0 0.0
2017-Oct-21 23:30N 40°38' W 074°10'0 0.0
2017-Oct-21 23:00N 40°38' W 074°10'0 0.0
2017-Oct-21 22:30N 40°38' W 074°10'0 0.0
2017-Oct-21 21:58N 40°38' W 074°10'0 0.0
2017-Oct-21 21:30N 40°38' W 074°10'0 0.0
2017-Oct-21 21:00N 40°38' W 074°10'0 0.0
2017-Oct-21 20:31N 40°38' W 074°10'0 0.0
2017-Oct-21 20:00N 40°38' W 074°10'0 0.0
2017-Oct-21 19:29N 40°38' W 074°10'0 0.0
2017-Oct-21 19:00N 40°38' W 074°10'0 0.0
2017-Oct-21 18:30N 40°38' W 074°10'0 0.0
2017-Oct-21 18:00N 40°38' W 074°10'0 0.0
2017-Oct-21 17:30N 40°38' W 074°10'3 5.2
2017-Oct-21 16:59N 40°39' W 074°06'2 4.0
2017-Oct-21 16:30N 40°39' W 074°09'1 2.3
2017-Oct-21 16:00N 40°40' W 074°08'0 0.2
2017-Oct-21 15:30N 40°40' W 074°08'2 3.1
2017-Oct-21 15:00N 40°39' W 074°09'5 7.7
2017-Oct-21 14:23N 40°35' W 074°13'3 1.5
2017-Oct-21 12:32N 40°32' W 074°15'1 3.5
2017-Oct-21 12:13N 40°31' W 074°15'0 0.0
2017-Oct-21 11:57N 40°31' W 074°15'4 8.5
2017-Oct-21 11:26N 40°35' W 074°12'4 9.1
2017-Oct-21 11:00N 40°39' W 074°10'1 2.2
2017-Oct-21 10:29N 40°40' W 074°09'0 0.8
2017-Oct-21 10:00N 40°40' W 074°09'2 3.2
2017-Oct-21 09:30N 40°39' W 074°10'0 0.6
2017-Oct-21 09:00N 40°38' W 074°10'0 0.0
2017-Oct-21 08:30N 40°38' W 074°10'0 0.0
2017-Oct-21 07:59N 40°38' W 074°10'0 0.0
2017-Oct-21 07:30N 40°38' W 074°10'0 0.0
2017-Oct-21 06:59N 40°38' W 074°10'0 0.0
2017-Oct-21 06:30N 40°38' W 074°10'0 0.0
2017-Oct-21 06:00N 40°38' W 074°10'0 0.0
2017-Oct-21 05:30N 40°38' W 074°10'1 1.3
2017-Oct-21 05:00N 40°39' W 074°09'0 0.4
2017-Oct-21 04:30N 40°39' W 074°09'2 3.1
2017-Oct-21 03:57N 40°39' W 074°11'0 0.5
2017-Oct-21 03:30N 40°39' W 074°11'1 2.1
2017-Oct-21 03:00N 40°38' W 074°10'0 0.0
2017-Oct-21 02:30N 40°38' W 074°10'0 0.0
2017-Oct-21 02:00N 40°38' W 074°10'0 0.0
2017-Oct-21 01:30N 40°38' W 074°10'0 0.0
2017-Oct-21 01:00N 40°38' W 074°10'0 0.0
2017-Oct-21 00:30N 40°38' W 074°10'0 0.0
2017-Oct-21 00:00N 40°38' W 074°10'0 0.0
2017-Oct-20 23:30N 40°38' W 074°10'0 0.0
2017-Oct-20 23:00N 40°38' W 074°10'2 3.7
2017-Oct-20 22:30N 40°40' W 074°08'2 3.5
2017-Oct-20 22:00N 40°42' W 074°09'0 0.1
2017-Oct-20 21:30N 40°42' W 074°09'0 0.0
2017-Oct-20 21:00N 40°42' W 074°09'0 0.0
2017-Oct-20 20:27N 40°42' W 074°09'2 3.6
2017-Oct-20 20:00N 40°40' W 074°08'2 4.2
2017-Oct-20 19:30N 40°38' W 074°10'0 0.0
2017-Oct-20 19:00N 40°38' W 074°10'0 0.0
2017-Oct-20 18:29N 40°38' W 074°10'0 0.0
2017-Oct-20 18:00N 40°38' W 074°10'0 0.0
2017-Oct-20 17:31N 40°38' W 074°10'0 0.0
2017-Oct-20 17:00N 40°38' W 074°10'1 1.0
2017-Oct-20 16:28N 40°39' W 074°09'2 3.6
2017-Oct-20 16:00N 40°40' W 074°08'0 0.6
2017-Oct-20 15:30N 40°40' W 074°08'2 3.4
2017-Oct-20 15:00N 40°39' W 074°07'1 2.0
2017-Oct-20 14:30N 40°39' W 074°08'1 1.2
2017-Oct-20 13:30N 40°38' W 074°10'0 0.0
2017-Oct-20 13:00N 40°38' W 074°10'0 0.0
2017-Oct-20 12:30N 40°38' W 074°10'0 0.0
2017-Oct-20 12:00N 40°38' W 074°10'0 0.0
2017-Oct-20 11:30N 40°38' W 074°10'1 2.3
2017-Oct-20 11:00N 40°39' W 074°11'1 2.1
2017-Oct-20 10:31N 40°39' W 074°10'3 6.8
2017-Oct-20 10:00N 40°39' W 074°05'2 5.0
2017-Oct-20 09:30N 40°38' W 074°03'2 3.4
2017-Oct-20 09:00N 40°39' W 074°04'4 8.9
2017-Oct-20 08:30N 40°39' W 074°10'0 0.6
2017-Oct-20 07:59N 40°38' W 074°10'0 0.0
2017-Oct-20 07:30N 40°38' W 074°10'0 0.0
2017-Oct-20 07:00N 40°38' W 074°10'0 0.0
2017-Oct-20 06:30N 40°38' W 074°10'0 0.0
2017-Oct-20 05:59N 40°38' W 074°10'0 0.0
2017-Oct-20 05:30N 40°38' W 074°10'0 0.0
2017-Oct-20 04:59N 40°38' W 074°10'0 0.0
2017-Oct-20 04:30N 40°38' W 074°10'0 0.0
2017-Oct-20 04:00N 40°38' W 074°10'1 1.2
2017-Oct-20 03:30N 40°39' W 074°09'0 0.7
2017-Oct-20 02:58N 40°39' W 074°09'1 3.1
2017-Oct-20 02:30N 40°39' W 074°11'0 0.3
2017-Oct-20 02:00N 40°39' W 074°11'1 1.9
2017-Oct-20 01:29N 40°38' W 074°10'0 0.0
2017-Oct-20 01:00N 40°38' W 074°10'0 0.0
2017-Oct-20 00:30N 40°38' W 074°10'0 0.0
2017-Oct-20 00:00N 40°38' W 074°10'0 0.0
2017-Oct-19 23:30N 40°38' W 074°10'0 0.0
2017-Oct-19 23:00N 40°38' W 074°10'0 0.0
2017-Oct-19 22:30N 40°38' W 074°10'0 0.0
2017-Oct-19 22:00N 40°38' W 074°10'0 0.0
2017-Oct-19 21:30N 40°38' W 074°10'0 0.0
2017-Oct-19 21:00N 40°38' W 074°10'0 0.0
2017-Oct-19 20:29N 40°38' W 074°10'0 0.0
2017-Oct-19 20:00N 40°38' W 074°10'0 0.0
2017-Oct-19 19:29N 40°38' W 074°10'0 0.0
2017-Oct-19 18:58N 40°38' W 074°10'0 0.0
2017-Oct-19 18:30N 40°38' W 074°10'2 3.5
2017-Oct-19 18:00N 40°40' W 074°09'0 0.8
2017-Oct-19 17:30N 40°40' W 074°09'1 2.8
2017-Oct-19 17:01N 40°39' W 074°07'3 5.9
2017-Oct-19 16:30N 40°39' W 074°03'1 2.1
2017-Oct-19 16:00N 40°38' W 074°04'0 0.0
2017-Oct-19 15:30N 40°38' W 074°04'0 0.0
2017-Oct-19 15:00N 40°38' W 074°04'0 0.0
2017-Oct-19 14:30N 40°38' W 074°04'0 0.0
2017-Oct-19 14:00N 40°38' W 074°04'0 0.0
2017-Oct-19 13:30N 40°38' W 074°04'0 0.0
2017-Oct-19 13:00N 40°38' W 074°04'0 0.0
2017-Oct-19 12:30N 40°38' W 074°04'0 0.0
2017-Oct-19 12:00N 40°38' W 074°04'1 2.8
2017-Oct-19 11:30N 40°39' W 074°05'4 7.8
2017-Oct-19 11:01N 40°39' W 074°10'1 2.6
2017-Oct-19 10:30N 40°40' W 074°09'0 0.7
2017-Oct-19 10:00N 40°39' W 074°09'2 3.9
2017-Oct-19 09:30N 40°39' W 074°06'3 5.8
2017-Oct-19 09:00N 40°37' W 074°03'1 1.8
2017-Oct-19 08:30N 40°37' W 074°03'2 4.3
2017-Oct-19 08:00N 40°39' W 074°04'5 8.9
2017-Oct-19 07:30N 40°39' W 074°10'0 0.7
2017-Oct-19 07:00N 40°38' W 074°10'0 0.0
2017-Oct-19 06:30N 40°38' W 074°10'0 0.0
2017-Oct-19 05:59N 40°38' W 074°10'0 0.0
2017-Oct-19 05:30N 40°38' W 074°10'0 0.0
2017-Oct-19 05:00N 40°38' W 074°10'2 3.9
2017-Oct-19 04:30N 40°39' W 074°07'3 5.0
2017-Oct-19 04:00N 40°41' W 074°09'0 0.8
2017-Oct-19 03:30N 40°41' W 074°09'3 5.3
2017-Oct-19 03:00N 40°38' W 074°10'0 0.0
2017-Oct-19 02:30N 40°38' W 074°10'0 0.0
2017-Oct-19 01:59N 40°38' W 074°10'0 0.0
2017-Oct-19 01:30N 40°38' W 074°10'0 0.0
2017-Oct-19 01:00N 40°38' W 074°10'0 0.0
2017-Oct-19 00:30N 40°38' W 074°10'0 0.0
2017-Oct-19 00:00N 40°38' W 074°10'0 0.0
2017-Oct-18 23:30N 40°38' W 074°10'0 0.0
2017-Oct-18 22:57N 40°38' W 074°10'0 0.0
2017-Oct-18 22:30N 40°38' W 074°10'0 0.0
2017-Oct-18 22:00N 40°38' W 074°10'0 0.0
2017-Oct-18 21:30N 40°38' W 074°10'0 0.0
2017-Oct-18 21:00N 40°38' W 074°10'0 0.0
2017-Oct-18 20:30N 40°38' W 074°10'0 0.0
2017-Oct-18 20:00N 40°38' W 074°10'0 0.0
2017-Oct-18 19:30N 40°38' W 074°10'0 0.0
2017-Oct-18 19:00N 40°38' W 074°10'0 0.0
2017-Oct-18 18:30N 40°38' W 074°10'0 0.0
2017-Oct-18 18:00N 40°38' W 074°10'0 0.0
2017-Oct-18 17:30N 40°38' W 074°10'0 0.0
2017-Oct-18 17:00N 40°38' W 074°10'0 0.0
2017-Oct-18 16:30N 40°38' W 074°10'0 0.0
2017-Oct-18 16:00N 40°38' W 074°10'4 4.5
2017-Oct-18 15:02N 40°40' W 074°05'0 0.0
2017-Oct-18 15:00N 40°40' W 074°05'2 1.7
2017-Oct-18 14:00N 40°39' W 074°03'2 3.5
2017-Oct-18 13:30N 40°37' W 074°03'3 5.9
2017-Oct-18 13:00N 40°40' W 074°04'2 3.5
2017-Oct-18 12:30N 40°39' W 074°06'3 5.9
2017-Oct-18 12:00N 40°38' W 074°10'0 0.0
2017-Oct-18 11:30N 40°38' W 074°10'0 0.0
2017-Oct-18 11:00N 40°38' W 074°10'0 0.0
2017-Oct-18 10:30N 40°38' W 074°10'1 1.9
2017-Oct-18 10:00N 40°39' W 074°09'2 4.2
2017-Oct-18 09:30N 40°41' W 074°08'0 0.3
2017-Oct-18 09:00N 40°41' W 074°09'1 2.3
2017-Oct-18 08:30N 40°40' W 074°09'1 2.7
2017-Oct-18 08:00N 40°38' W 074°10'0 0.0
2017-Oct-18 07:30N 40°38' W 074°10'0 0.0
2017-Oct-18 07:00N 40°38' W 074°10'0 0.0
2017-Oct-18 06:30N 40°38' W 074°10'0 0.0
2017-Oct-18 06:00N 40°38' W 074°10'0 0.0
2017-Oct-18 05:31N 40°38' W 074°10'0 0.0
2017-Oct-18 05:00N 40°38' W 074°10'0 0.0
2017-Oct-18 04:30N 40°38' W 074°10'0 0.0
2017-Oct-18 04:00N 40°38' W 074°10'0 0.0
2017-Oct-18 03:29N 40°38' W 074°10'0 0.0
2017-Oct-18 03:00N 40°38' W 074°10'2 3.7
2017-Oct-18 02:30N 40°39' W 074°07'2 3.0
2017-Oct-18 02:00N 40°40' W 074°09'1 2.0
2017-Oct-18 01:30N 40°39' W 074°09'0 0.9
2017-Oct-18 01:00N 40°38' W 074°10'0 0.0
2017-Oct-18 00:30N 40°38' W 074°10'0 0.0
2017-Oct-18 00:00N 40°38' W 074°10'1 1.1
2017-Oct-17 23:30N 40°39' W 074°09'1 1.0
2017-Oct-17 23:00N 40°39' W 074°09'2 3.3
2017-Oct-17 22:31N 40°40' W 074°08'1 2.1
2017-Oct-17 22:00N 40°41' W 074°09'0 0.0
2017-Oct-17 21:30N 40°41' W 074°09'0 0.0
2017-Oct-17 21:00N 40°41' W 074°09'3 5.3
2017-Oct-17 20:30N 40°38' W 074°10'0 0.0
2017-Oct-17 20:00N 40°38' W 074°10'0 0.0
2017-Oct-17 19:30N 40°38' W 074°10'1 2.5
2017-Oct-17 19:00N 40°38' W 074°12'0 0.0
2017-Oct-17 18:30N 40°38' W 074°12'0 0.0
2017-Oct-17 18:00N 40°38' W 074°12'0 0.0
2017-Oct-17 17:30N 40°38' W 074°12'0 0.0
2017-Oct-17 17:00N 40°38' W 074°12'3 5.9
2017-Oct-17 16:30N 40°35' W 074°12'2 3.1
2017-Oct-17 15:58N 40°34' W 074°13'3 5.5
2017-Oct-17 15:30N 40°36' W 074°12'2 3.1
2017-Oct-17 15:00N 40°38' W 074°12'0 0.0
2017-Oct-17 14:30N 40°38' W 074°12'2 3.7
2017-Oct-17 14:00N 40°38' W 074°10'0 0.0
2017-Oct-17 13:30N 40°38' W 074°10'0 0.0
2017-Oct-17 13:00N 40°38' W 074°10'0 0.0
2017-Oct-17 12:30N 40°38' W 074°10'0 0.0
2017-Oct-17 12:00N 40°38' W 074°10'0 0.0
2017-Oct-17 11:30N 40°38' W 074°10'0 0.0
2017-Oct-17 11:00N 40°38' W 074°10'0 0.0
2017-Oct-17 10:30N 40°38' W 074°10'1 1.1
2017-Oct-17 10:00N 40°39' W 074°09'5 9.4
2017-Oct-17 09:30N 40°39' W 074°03'1 2.9
2017-Oct-17 09:00N 40°40' W 074°05'1 2.7
2017-Oct-17 08:30N 40°39' W 074°05'3 6.7
2017-Oct-17 08:00N 40°38' W 074°10'0 0.0
2017-Oct-17 07:30N 40°38' W 074°10'0 0.0
2017-Oct-17 07:00N 40°38' W 074°10'0 0.0
2017-Oct-17 06:30N 40°38' W 074°10'0 0.0
2017-Oct-17 06:00N 40°38' W 074°10'0 0.0
2017-Oct-17 05:31N 40°38' W 074°10'0 0.0
2017-Oct-17 05:00N 40°38' W 074°10'0 0.0
2017-Oct-17 04:30N 40°38' W 074°10'0 0.0
2017-Oct-17 04:00N 40°38' W 074°10'0 0.0
2017-Oct-17 03:30N 40°38' W 074°10'0 0.0
2017-Oct-17 02:59N 40°38' W 074°10'0 0.0
2017-Oct-17 02:31N 40°38' W 074°10'0 0.0
2017-Oct-17 02:00N 40°38' W 074°10'0 0.0
2017-Oct-17 01:30N 40°38' W 074°10'0 0.0
2017-Oct-17 01:00N 40°38' W 074°10'0 0.0
2017-Oct-17 00:30N 40°38' W 074°10'1 1.1
2017-Oct-17 00:00N 40°39' W 074°09'0 0.5
2017-Oct-16 23:30N 40°39' W 074°09'3 5.5
2017-Oct-16 23:00N 40°41' W 074°08'1 1.8
2017-Oct-16 22:30N 40°42' W 074°09'1 1.8
2017-Oct-16 22:00N 40°41' W 074°09'0 0.1
2017-Oct-16 21:30N 40°41' W 074°09'1 2.9
2017-Oct-16 21:00N 40°40' W 074°09'2 3.2
2017-Oct-16 20:30N 40°39' W 074°07'3 5.8
2017-Oct-16 20:00N 40°38' W 074°03'1 2.3
2017-Oct-16 19:30N 40°39' W 074°04'4 8.8
2017-Oct-16 19:00N 40°39' W 074°10'0 0.5
2017-Oct-16 18:30N 40°38' W 074°10'0 0.0
2017-Oct-16 18:00N 40°38' W 074°10'0 0.0
2017-Oct-16 17:30N 40°38' W 074°10'0 0.0
2017-Oct-16 17:00N 40°38' W 074°10'0 0.0
2017-Oct-16 16:29N 40°38' W 074°10'0 0.0
2017-Oct-16 16:00N 40°38' W 074°10'0 0.0
2017-Oct-16 15:31N 40°38' W 074°10'0 0.0
2017-Oct-16 15:00N 40°38' W 074°10'0 0.0
2017-Oct-16 14:30N 40°38' W 074°10'0 0.0
2017-Oct-16 13:30N 40°38' W 074°10'0 0.0
2017-Oct-16 13:00N 40°38' W 074°10'0 0.0
2017-Oct-16 12:30N 40°38' W 074°10'0 0.1
2017-Oct-16 12:00N 40°38' W 074°10'0 0.0
2017-Oct-16 11:30N 40°38' W 074°10'0 0.0
2017-Oct-16 11:00N 40°38' W 074°10'1 2.4
2017-Oct-16 10:29N 40°38' W 074°11'1 1.2
2017-Oct-16 10:00N 40°39' W 074°11'1 2.8
2017-Oct-16 09:30N 40°39' W 074°09'3 5.7
2017-Oct-16 09:00N 40°39' W 074°05'2 4.8
2017-Oct-16 08:30N 40°38' W 074°03'4 7.9
2017-Oct-16 08:00N 40°39' W 074°08'2 3.0
2017-Oct-16 07:30N 40°38' W 074°10'0 0.0
2017-Oct-16 07:00N 40°38' W 074°10'0 0.0
2017-Oct-16 06:30N 40°38' W 074°10'1 2.3
2017-Oct-16 06:00N 40°39' W 074°08'1 2.6
2017-Oct-16 05:30N 40°40' W 074°09'0 0.3
2017-Oct-16 05:00N 40°40' W 074°09'2 3.3
2017-Oct-16 04:29N 40°38' W 074°10'0 0.1
2017-Oct-16 04:00N 40°38' W 074°10'0 0.0
2017-Oct-16 03:30N 40°38' W 074°10'0 0.0
2017-Oct-16 03:00N 40°38' W 074°10'0 0.0
2017-Oct-16 02:30N 40°38' W 074°10'0 0.0
2017-Oct-16 02:00N 40°38' W 074°10'0 0.0
2017-Oct-16 01:30N 40°38' W 074°10'3 5.9
2017-Oct-16 01:00N 40°41' W 074°08'1 1.9
2017-Oct-16 00:30N 40°42' W 074°09'1 1.3
2017-Oct-16 00:00N 40°41' W 074°08'3 5.7
2017-Oct-15 23:30N 40°39' W 074°09'4 7.2
2017-Oct-15 23:00N 40°39' W 074°04'1 2.3
2017-Oct-15 22:30N 40°38' W 074°04'0 0.0
2017-Oct-15 22:00N 40°38' W 074°04'2 3.3
2017-Oct-15 21:30N 40°39' W 074°06'3 6.0
2017-Oct-15 21:00N 40°38' W 074°10'0 0.0
2017-Oct-15 20:30N 40°38' W 074°10'0 0.0
2017-Oct-15 20:00N 40°38' W 074°10'0 0.0
2017-Oct-15 19:30N 40°38' W 074°10'0 0.0
2017-Oct-15 19:00N 40°38' W 074°10'0 0.0
2017-Oct-15 18:30N 40°38' W 074°10'0 0.0
2017-Oct-15 18:00N 40°38' W 074°10'0 0.0
2017-Oct-15 17:30N 40°38' W 074°10'0 0.0
2017-Oct-15 17:00N 40°38' W 074°10'0 0.0
2017-Oct-15 16:30N 40°38' W 074°10'0 0.0
2017-Oct-15 16:00N 40°38' W 074°10'0 0.0
2017-Oct-15 15:30N 40°38' W 074°10'0 0.0
2017-Oct-15 15:00N 40°38' W 074°10'0 0.0
2017-Oct-15 14:00N 40°38' W 074°10'0 0.0
2017-Oct-15 13:30N 40°38' W 074°10'0 0.0
2017-Oct-15 13:00N 40°38' W 074°10'0 0.0
2017-Oct-15 12:30N 40°38' W 074°10'0 0.0
2017-Oct-15 12:00N 40°38' W 074°10'0 0.0
2017-Oct-15 11:30N 40°38' W 074°10'0 0.0
2017-Oct-15 11:00N 40°38' W 074°10'1 2.2
2017-Oct-15 10:31N 40°39' W 074°09'1 2.1
2017-Oct-15 10:00N 40°40' W 074°08'1 2.9
2017-Oct-15 09:30N 40°39' W 074°09'3 5.6
2017-Oct-15 09:01N 40°39' W 074°05'2 4.6
2017-Oct-15 08:30N 40°37' W 074°03'3 6.7
2017-Oct-15 08:00N 40°39' W 074°07'2 4.0
2017-Oct-15 07:30N 40°38' W 074°10'0 0.0
2017-Oct-15 07:00N 40°38' W 074°10'0 0.0
2017-Oct-15 06:30N 40°38' W 074°10'0 0.0
2017-Oct-15 06:00N 40°38' W 074°10'0 0.0
2017-Oct-15 05:30N 40°38' W 074°10'0 0.0
2017-Oct-15 05:00N 40°38' W 074°10'0 0.0
2017-Oct-15 04:30N 40°38' W 074°10'0 0.0
2017-Oct-15 04:00N 40°38' W 074°10'0 0.0
2017-Oct-15 03:30N 40°38' W 074°10'0 0.0
2017-Oct-15 03:00N 40°38' W 074°10'0 0.0
2017-Oct-15 02:30N 40°38' W 074°10'0 0.0
2017-Oct-15 02:00N 40°38' W 074°10'0 0.0
2017-Oct-15 01:30N 40°38' W 074°10'0 0.0
2017-Oct-15 01:00N 40°38' W 074°10'0 0.0
2017-Oct-15 00:30N 40°38' W 074°10'0 0.0
2017-Oct-15 00:00N 40°38' W 074°10'0 0.0
2017-Oct-14 23:30N 40°38' W 074°10'0 0.0
2017-Oct-14 23:00N 40°38' W 074°10'0 0.0
2017-Oct-14 22:31N 40°38' W 074°10'0 0.0
2017-Oct-14 22:00N 40°38' W 074°10'2 3.8
2017-Oct-14 21:30N 40°38' W 074°12'0 0.0
2017-Oct-14 21:00N 40°38' W 074°12'0 0.4
2017-Oct-14 20:30N 40°38' W 074°12'2 3.9
2017-Oct-14 19:59N 40°39' W 074°09'3 5.6
2017-Oct-14 19:29N 40°39' W 074°06'2 4.8
2017-Oct-14 19:00N 40°38' W 074°03'5 9.5
2017-Oct-14 18:30N 40°39' W 074°09'1 1.0
2017-Oct-14 18:00N 40°38' W 074°10'0 0.0
2017-Oct-14 17:30N 40°38' W 074°10'0 0.0
2017-Oct-14 17:00N 40°38' W 074°10'0 0.0
2017-Oct-14 16:30N 40°38' W 074°10'0 0.0
2017-Oct-14 16:00N 40°38' W 074°10'0 0.0
2017-Oct-14 15:30N 40°38' W 074°10'0 0.0
2017-Oct-14 15:00N 40°38' W 074°10'0 0.0
2017-Oct-14 14:30N 40°38' W 074°10'0 0.0
2017-Oct-14 14:00N 40°38' W 074°10'0 0.0
2017-Oct-14 13:30N 40°38' W 074°10'0 0.0
2017-Oct-14 12:59N 40°38' W 074°10'0 0.0
2017-Oct-14 12:30N 40°38' W 074°10'0 0.0
2017-Oct-14 12:00N 40°38' W 074°10'0 0.0
2017-Oct-14 11:30N 40°38' W 074°10'0 0.0
2017-Oct-14 11:00N 40°38' W 074°10'0 0.0
2017-Oct-14 10:30N 40°38' W 074°10'0 0.0
2017-Oct-14 10:00N 40°38' W 074°10'0 0.0
2017-Oct-14 09:30N 40°38' W 074°10'0 0.0
2017-Oct-14 09:00N 40°38' W 074°10'0 0.0
2017-Oct-14 08:31N 40°38' W 074°10'0 0.0
2017-Oct-14 08:00N 40°38' W 074°10'0 0.0
2017-Oct-14 07:30N 40°38' W 074°10'0 0.0
2017-Oct-14 07:00N 40°38' W 074°10'3 6.5
2017-Oct-14 06:30N 40°39' W 074°06'2 4.4
2017-Oct-14 06:00N 40°39' W 074°08'2 3.0
2017-Oct-14 05:30N 40°40' W 074°08'0 0.5
2017-Oct-14 05:00N 40°40' W 074°09'1 1.6
2017-Oct-14 04:30N 40°39' W 074°09'1 1.9
2017-Oct-14 04:00N 40°38' W 074°10'0 0.0
2017-Oct-14 03:30N 40°38' W 074°10'0 0.0
2017-Oct-14 03:00N 40°38' W 074°10'0 0.0
2017-Oct-14 02:30N 40°38' W 074°10'0 0.0
2017-Oct-14 01:46N 40°38' W 074°10'0 0.0
2017-Oct-14 01:30N 40°38' W 074°10'0 0.0
2017-Oct-14 00:56N 40°38' W 074°10'0 0.0
2017-Oct-14 00:27N 40°38' W 074°10'0 0.0
2017-Oct-14 00:00N 40°38' W 074°10'0 0.0
2017-Oct-13 23:27N 40°38' W 074°10'0 0.0
2017-Oct-13 22:49N 40°38' W 074°10'0 0.0
2017-Oct-13 22:30N 40°38' W 074°10'0 0.0
2017-Oct-13 22:00N 40°38' W 074°10'0 0.0
2017-Oct-13 21:30N 40°38' W 074°10'0 0.0
2017-Oct-13 21:00N 40°38' W 074°10'0 0.0
2017-Oct-13 20:30N 40°38' W 074°10'0 0.0
2017-Oct-13 20:00N 40°38' W 074°10'0 0.0
2017-Oct-13 19:29N 40°38' W 074°10'0 0.0
2017-Oct-13 19:00N 40°38' W 074°10'0 0.0
2017-Oct-13 18:30N 40°38' W 074°10'0 0.0
2017-Oct-13 18:00N 40°38' W 074°10'0 0.0
2017-Oct-13 17:30N 40°38' W 074°10'0 0.0
2017-Oct-13 17:00N 40°38' W 074°10'0 0.0
2017-Oct-13 16:30N 40°38' W 074°10'0 0.0
2017-Oct-13 16:00N 40°38' W 074°10'0 0.0
2017-Oct-13 15:30N 40°38' W 074°10'0 0.0
2017-Oct-13 14:59N 40°38' W 074°10'0 0.0
2017-Oct-13 14:30N 40°38' W 074°10'0 0.0
2017-Oct-13 14:00N 40°38' W 074°10'0 0.0
2017-Oct-13 13:30N 40°38' W 074°10'0 0.0
2017-Oct-13 13:00N 40°38' W 074°10'0 0.0
2017-Oct-13 12:31N 40°38' W 074°10'0 0.0
2017-Oct-13 12:00N 40°38' W 074°10'0 0.0
2017-Oct-13 11:30N 40°38' W 074°10'0 0.0
2017-Oct-13 11:00N 40°38' W 074°10'1 2.3
2017-Oct-13 10:30N 40°39' W 074°09'1 1.7
2017-Oct-13 10:00N 40°40' W 074°08'1 2.9
2017-Oct-13 09:30N 40°39' W 074°09'3 5.4
2017-Oct-13 09:00N 40°39' W 074°05'4 7.0
2017-Oct-13 08:30N 40°39' W 074°10'2 3.7
2017-Oct-13 08:00N 40°38' W 074°12'0 0.0
2017-Oct-13 07:30N 40°38' W 074°12'0 0.5
2017-Oct-13 07:00N 40°38' W 074°12'2 4.1
2017-Oct-13 06:30N 40°39' W 074°09'3 5.9
2017-Oct-13 06:00N 40°39' W 074°05'2 4.5
2017-Oct-13 05:30N 40°37' W 074°03'0 0.2
2017-Oct-13 05:00N 40°37' W 074°03'2 4.8
2017-Oct-13 04:30N 40°39' W 074°06'2 4.7
2017-Oct-13 04:00N 40°39' W 074°09'1 1.7
2017-Oct-13 03:30N 40°40' W 074°09'0 0.5
2017-Oct-13 03:00N 40°40' W 074°09'1 2.0
2017-Oct-13 02:30N 40°39' W 074°09'0 0.8
2017-Oct-13 02:00N 40°39' W 074°10'3 6.9
2017-Oct-13 01:30N 40°42' W 074°09'0 0.0
2017-Oct-13 00:59N 40°42' W 074°09'1 2.8
2017-Oct-13 00:30N 40°41' W 074°08'2 4.0
2017-Oct-13 00:00N 40°39' W 074°07'3 6.2
2017-Oct-12 23:30N 40°38' W 074°03'1 1.2
2017-Oct-12 23:00N 40°38' W 074°04'0 0.0
2017-Oct-12 22:30N 40°38' W 074°04'1 2.5
2017-Oct-12 22:00N 40°39' W 074°04'3 6.8
2017-Oct-12 21:30N 40°39' W 074°09'  
Track history (hours):
 
Tides and Currents Weather Stations Pressure Air Temp Water Temp Dewpoint Dewpoint Depression Visibility Wind Speed Wind Dir Waves Ship Positions

Eric Mcallister

Owner: McAllister Towing & Transportation, Staten Island, NY. More information available from US FCC via Universal Licensing System and Coast Guard Vessel Documentation Center.

Last reported at 2017-Oct-22 21:00 UTC. Time now 2017-Oct-22 21:21 UTC.
Position N 40°38' W 074°10'.

Length 30 m; draft 4.4 m.

Type: Tug. MMSI: 367636710.

Date/timePositionNaut miles runAvg speedWind from/ knotsBaromVisibWave heightAir tempDewpointWater temp
2017-Oct-22 21:00N 40°38' W 074°10'0 0.0
2017-Oct-22 20:29N 40°38' W 074°10'0 0.0
2017-Oct-22 20:00N 40°38' W 074°10'0 0.0
2017-Oct-22 19:30N 40°38' W 074°10'0 0.0
2017-Oct-22 19:00N 40°38' W 074°10'0 0.0
2017-Oct-22 18:29N 40°38' W 074°10'0 0.0
2017-Oct-22 17:59N 40°38' W 074°10'0 0.0
2017-Oct-22 17:30N 40°38' W 074°10'0 0.0
2017-Oct-22 17:00N 40°38' W 074°10'0 0.0
2017-Oct-22 16:30N 40°38' W 074°10'0 0.0
2017-Oct-22 16:00N 40°38' W 074°10'0 0.0
2017-Oct-22 15:29N 40°38' W 074°10'0 0.0
2017-Oct-22 15:00N 40°38' W 074°10'0 0.0
2017-Oct-22 14:30N 40°38' W 074°10'0 0.0
2017-Oct-22 14:00N 40°38' W 074°10'0 0.0
2017-Oct-22 13:30N 40°38' W 074°10'0 0.0
2017-Oct-22 13:00N 40°38' W 074°10'0 0.0
2017-Oct-22 12:30N 40°38' W 074°10'0 0.0
2017-Oct-22 12:00N 40°38' W 074°10'0 0.0
2017-Oct-22 11:30N 40°38' W 074°10'0 0.7
2017-Oct-22 11:00N 40°39' W 074°10'2 4.4
2017-Oct-22 10:31N 40°41' W 074°09'0 1.0
2017-Oct-22 10:00N 40°41' W 074°08'2 4.0
2017-Oct-22 09:29N 40°39' W 074°09'4 7.5
2017-Oct-22 09:00N 40°39' W 074°04'0 0.6
2017-Oct-22 08:30N 40°39' W 074°05'4 7.9
2017-Oct-22 08:00N 40°38' W 074°10'0 0.0
2017-Oct-22 07:30N 40°38' W 074°10'0 0.0
2017-Oct-22 07:00N 40°38' W 074°10'0 0.0
2017-Oct-22 06:30N 40°38' W 074°10'0 0.0
2017-Oct-22 05:59N 40°38' W 074°10'0 0.0
2017-Oct-22 05:30N 40°38' W 074°10'0 0.0
2017-Oct-22 05:00N 40°38' W 074°10'0 0.0
2017-Oct-22 04:30N 40°38' W 074°10'0 0.0
2017-Oct-22 04:00N 40°38' W 074°10'0 0.0
2017-Oct-22 03:30N 40°38' W 074°10'0 0.0
2017-Oct-22 02:59N 40°38' W 074°10'0 0.0
2017-Oct-22 02:30N 40°38' W 074°10'0 0.0
2017-Oct-22 02:00N 40°38' W 074°10'0 0.0
2017-Oct-22 01:30N 40°38' W 074°10'0 0.0
2017-Oct-22 01:00N 40°38' W 074°10'0 0.0
2017-Oct-22 00:29N 40°38' W 074°10'0 0.0
2017-Oct-22 00:00N 40°38' W 074°10'0 0.0
2017-Oct-21 23:30N 40°38' W 074°10'0 0.0
2017-Oct-21 23:00N 40°38' W 074°10'0 0.0
2017-Oct-21 22:30N 40°38' W 074°10'0 0.0
2017-Oct-21 21:58N 40°38' W 074°10'0 0.0
2017-Oct-21 21:30N 40°38' W 074°10'0 0.0
2017-Oct-21 21:00N 40°38' W 074°10'0 0.0
2017-Oct-21 20:31N 40°38' W 074°10'0 0.0
2017-Oct-21 20:00N 40°38' W 074°10'0 0.0
2017-Oct-21 19:29N 40°38' W 074°10'0 0.0
2017-Oct-21 19:00N 40°38' W 074°10'0 0.0
2017-Oct-21 18:30N 40°38' W 074°10'0 0.0
2017-Oct-21 18:00N 40°38' W 074°10'0 0.0
2017-Oct-21 17:30N 40°38' W 074°10'3 5.2
2017-Oct-21 16:59N 40°39' W 074°06'2 4.0
2017-Oct-21 16:30N 40°39' W 074°09'1 2.3
2017-Oct-21 16:00N 40°40' W 074°08'0 0.2
2017-Oct-21 15:30N 40°40' W 074°08'2 3.1
2017-Oct-21 15:00N 40°39' W 074°09'5 7.7
2017-Oct-21 14:23N 40°35' W 074°13'3 1.5
2017-Oct-21 12:32N 40°32' W 074°15'1 3.5
2017-Oct-21 12:13N 40°31' W 074°15'0 0.0
2017-Oct-21 11:57N 40°31' W 074°15'4 8.5
2017-Oct-21 11:26N 40°35' W 074°12'4 9.1
2017-Oct-21 11:00N 40°39' W 074°10'1 2.2
2017-Oct-21 10:29N 40°40' W 074°09'0 0.8
2017-Oct-21 10:00N 40°40' W 074°09'2 3.2
2017-Oct-21 09:30N 40°39' W 074°10'0 0.6
2017-Oct-21 09:00N 40°38' W 074°10'0 0.0
2017-Oct-21 08:30N 40°38' W 074°10'0 0.0
2017-Oct-21 07:59N 40°38' W 074°10'0 0.0
2017-Oct-21 07:30N 40°38' W 074°10'0 0.0
2017-Oct-21 06:59N 40°38' W 074°10'0 0.0
2017-Oct-21 06:30N 40°38' W 074°10'0 0.0
2017-Oct-21 06:00N 40°38' W 074°10'0 0.0
2017-Oct-21 05:30N 40°38' W 074°10'1 1.3
2017-Oct-21 05:00N 40°39' W 074°09'0 0.4
2017-Oct-21 04:30N 40°39' W 074°09'2 3.1
2017-Oct-21 03:57N 40°39' W 074°11'0 0.5
2017-Oct-21 03:30N 40°39' W 074°11'1 2.1
2017-Oct-21 03:00N 40°38' W 074°10'0 0.0
2017-Oct-21 02:30N 40°38' W 074°10'0 0.0
2017-Oct-21 02:00N 40°38' W 074°10'0 0.0
2017-Oct-21 01:30N 40°38' W 074°10'0 0.0
2017-Oct-21 01:00N 40°38' W 074°10'0 0.0
2017-Oct-21 00:30N 40°38' W 074°10'0 0.0
2017-Oct-21 00:00N 40°38' W 074°10'0 0.0
2017-Oct-20 23:30N 40°38' W 074°10'0 0.0
2017-Oct-20 23:00N 40°38' W 074°10'2 3.7
2017-Oct-20 22:30N 40°40' W 074°08'2 3.5
2017-Oct-20 22:00N 40°42' W 074°09'0 0.1
2017-Oct-20 21:30N 40°42' W 074°09'0 0.0
2017-Oct-20 21:00N 40°42' W 074°09'0 0.0
2017-Oct-20 20:27N 40°42' W 074°09'2 3.6
2017-Oct-20 20:00N 40°40' W 074°08'2 4.2
2017-Oct-20 19:30N 40°38' W 074°10'0 0.0
2017-Oct-20 19:00N 40°38' W 074°10'0 0.0
2017-Oct-20 18:29N 40°38' W 074°10'0 0.0
2017-Oct-20 18:00N 40°38' W 074°10'0 0.0
2017-Oct-20 17:31N 40°38' W 074°10'0 0.0
2017-Oct-20 17:00N 40°38' W 074°10'1 1.0
2017-Oct-20 16:28N 40°39' W 074°09'2 3.6
2017-Oct-20 16:00N 40°40' W 074°08'0 0.6
2017-Oct-20 15:30N 40°40' W 074°08'2 3.4
2017-Oct-20 15:00N 40°39' W 074°07'1 2.0
2017-Oct-20 14:30N 40°39' W 074°08'1 1.2
2017-Oct-20 13:30N 40°38' W 074°10'0 0.0
2017-Oct-20 13:00N 40°38' W 074°10'0 0.0
2017-Oct-20 12:30N 40°38' W 074°10'0 0.0
2017-Oct-20 12:00N 40°38' W 074°10'0 0.0
2017-Oct-20 11:30N 40°38' W 074°10'1 2.3
2017-Oct-20 11:00N 40°39' W 074°11'1 2.1
2017-Oct-20 10:31N 40°39' W 074°10'3 6.8
2017-Oct-20 10:00N 40°39' W 074°05'2 5.0
2017-Oct-20 09:30N 40°38' W 074°03'2 3.4
2017-Oct-20 09:00N 40°39' W 074°04'4 8.9
2017-Oct-20 08:30N 40°39' W 074°10'0 0.6
2017-Oct-20 07:59N 40°38' W 074°10'0 0.0
2017-Oct-20 07:30N 40°38' W 074°10'0 0.0
2017-Oct-20 07:00N 40°38' W 074°10'0 0.0
2017-Oct-20 06:30N 40°38' W 074°10'0 0.0
2017-Oct-20 05:59N 40°38' W 074°10'0 0.0
2017-Oct-20 05:30N 40°38' W 074°10'0 0.0
2017-Oct-20 04:59N 40°38' W 074°10'0 0.0
2017-Oct-20 04:30N 40°38' W 074°10'0 0.0
2017-Oct-20 04:00N 40°38' W 074°10'1 1.2
2017-Oct-20 03:30N 40°39' W 074°09'0 0.7
2017-Oct-20 02:58N 40°39' W 074°09'1 3.1
2017-Oct-20 02:30N 40°39' W 074°11'0 0.3
2017-Oct-20 02:00N 40°39' W 074°11'1 1.9
2017-Oct-20 01:29N 40°38' W 074°10'0 0.0
2017-Oct-20 01:00N 40°38' W 074°10'0 0.0
2017-Oct-20 00:30N 40°38' W 074°10'0 0.0
2017-Oct-20 00:00N 40°38' W 074°10'0 0.0
2017-Oct-19 23:30N 40°38' W 074°10'0 0.0
2017-Oct-19 23:00N 40°38' W 074°10'0 0.0
2017-Oct-19 22:30N 40°38' W 074°10'0 0.0
2017-Oct-19 22:00N 40°38' W 074°10'0 0.0
2017-Oct-19 21:30N 40°38' W 074°10'0 0.0
2017-Oct-19 21:00N 40°38' W 074°10'0 0.0
2017-Oct-19 20:29N 40°38' W 074°10'0 0.0
2017-Oct-19 20:00N 40°38' W 074°10'0 0.0
2017-Oct-19 19:29N 40°38' W 074°10'0 0.0
2017-Oct-19 18:58N 40°38' W 074°10'0 0.0
2017-Oct-19 18:30N 40°38' W 074°10'2 3.5
2017-Oct-19 18:00N 40°40' W 074°09'0 0.8
2017-Oct-19 17:30N 40°40' W 074°09'1 2.8
2017-Oct-19 17:01N 40°39' W 074°07'3 5.9
2017-Oct-19 16:30N 40°39' W 074°03'1 2.1
2017-Oct-19 16:00N 40°38' W 074°04'0 0.0
2017-Oct-19 15:30N 40°38' W 074°04'0 0.0
2017-Oct-19 15:00N 40°38' W 074°04'0 0.0
2017-Oct-19 14:30N 40°38' W 074°04'0 0.0
2017-Oct-19 14:00N 40°38' W 074°04'0 0.0
2017-Oct-19 13:30N 40°38' W 074°04'0 0.0
2017-Oct-19 13:00N 40°38' W 074°04'0 0.0
2017-Oct-19 12:30N 40°38' W 074°04'0 0.0
2017-Oct-19 12:00N 40°38' W 074°04'1 2.8
2017-Oct-19 11:30N 40°39' W 074°05'4 7.8
2017-Oct-19 11:01N 40°39' W 074°10'1 2.6
2017-Oct-19 10:30N 40°40' W 074°09'0 0.7
2017-Oct-19 10:00N 40°39' W 074°09'2 3.9
2017-Oct-19 09:30N 40°39' W 074°06'3 5.8
2017-Oct-19 09:00N 40°37' W 074°03'1 1.8
2017-Oct-19 08:30N 40°37' W 074°03'2 4.3
2017-Oct-19 08:00N 40°39' W 074°04'5 8.9
2017-Oct-19 07:30N 40°39' W 074°10'0 0.7
2017-Oct-19 07:00N 40°38' W 074°10'0 0.0
2017-Oct-19 06:30N 40°38' W 074°10'0 0.0
2017-Oct-19 05:59N 40°38' W 074°10'0 0.0
2017-Oct-19 05:30N 40°38' W 074°10'0 0.0
2017-Oct-19 05:00N 40°38' W 074°10'2 3.9
2017-Oct-19 04:30N 40°39' W 074°07'3 5.0
2017-Oct-19 04:00N 40°41' W 074°09'0 0.8
2017-Oct-19 03:30N 40°41' W 074°09'3 5.3
2017-Oct-19 03:00N 40°38' W 074°10'0 0.0
2017-Oct-19 02:30N 40°38' W 074°10'0 0.0
2017-Oct-19 01:59N 40°38' W 074°10'0 0.0
2017-Oct-19 01:30N 40°38' W 074°10'0 0.0
2017-Oct-19 01:00N 40°38' W 074°10'0 0.0
2017-Oct-19 00:30N 40°38' W 074°10'0 0.0
2017-Oct-19 00:00N 40°38' W 074°10'0 0.0
2017-Oct-18 23:30N 40°38' W 074°10'0 0.0
2017-Oct-18 22:57N 40°38' W 074°10'0 0.0
2017-Oct-18 22:30N 40°38' W 074°10'0 0.0
2017-Oct-18 22:00N 40°38' W 074°10'0 0.0
2017-Oct-18 21:30N 40°38' W 074°10'0 0.0
2017-Oct-18 21:00N 40°38' W 074°10'0 0.0
2017-Oct-18 20:30N 40°38' W 074°10'0 0.0
2017-Oct-18 20:00N 40°38' W 074°10'0 0.0
2017-Oct-18 19:30N 40°38' W 074°10'0 0.0
2017-Oct-18 19:00N 40°38' W 074°10'0 0.0
2017-Oct-18 18:30N 40°38' W 074°10'0 0.0
2017-Oct-18 18:00N 40°38' W 074°10'0 0.0
2017-Oct-18 17:30N 40°38' W 074°10'0 0.0
2017-Oct-18 17:00N 40°38' W 074°10'0 0.0
2017-Oct-18 16:30N 40°38' W 074°10'0 0.0
2017-Oct-18 16:00N 40°38' W 074°10'4 4.5
2017-Oct-18 15:02N 40°40' W 074°05'0 0.0
2017-Oct-18 15:00N 40°40' W 074°05'2 1.7
2017-Oct-18 14:00N 40°39' W 074°03'2 3.5
2017-Oct-18 13:30N 40°37' W 074°03'3 5.9
2017-Oct-18 13:00N 40°40' W 074°04'2 3.5
2017-Oct-18 12:30N 40°39' W 074°06'3 5.9
2017-Oct-18 12:00N 40°38' W 074°10'0 0.0
2017-Oct-18 11:30N 40°38' W 074°10'0 0.0
2017-Oct-18 11:00N 40°38' W 074°10'0 0.0
2017-Oct-18 10:30N 40°38' W 074°10'1 1.9
2017-Oct-18 10:00N 40°39' W 074°09'2 4.2
2017-Oct-18 09:30N 40°41' W 074°08'0 0.3
2017-Oct-18 09:00N 40°41' W 074°09'1 2.3
2017-Oct-18 08:30N 40°40' W 074°09'1 2.7
2017-Oct-18 08:00N 40°38' W 074°10'0 0.0
2017-Oct-18 07:30N 40°38' W 074°10'0 0.0
2017-Oct-18 07:00N 40°38' W 074°10'0 0.0
2017-Oct-18 06:30N 40°38' W 074°10'0 0.0
2017-Oct-18 06:00N 40°38' W 074°10'0 0.0
2017-Oct-18 05:31N 40°38' W 074°10'0 0.0
2017-Oct-18 05:00N 40°38' W 074°10'0 0.0
2017-Oct-18 04:30N 40°38' W 074°10'0 0.0
2017-Oct-18 04:00N 40°38' W 074°10'0 0.0
2017-Oct-18 03:29N 40°38' W 074°10'0 0.0
2017-Oct-18 03:00N 40°38' W 074°10'2 3.7
2017-Oct-18 02:30N 40°39' W 074°07'2 3.0
2017-Oct-18 02:00N 40°40' W 074°09'1 2.0
2017-Oct-18 01:30N 40°39' W 074°09'0 0.9
2017-Oct-18 01:00N 40°38' W 074°10'0 0.0
2017-Oct-18 00:30N 40°38' W 074°10'0 0.0
2017-Oct-18 00:00N 40°38' W 074°10'1 1.1
2017-Oct-17 23:30N 40°39' W 074°09'1 1.0
2017-Oct-17 23:00N 40°39' W 074°09'2 3.3
2017-Oct-17 22:31N 40°40' W 074°08'1 2.1
2017-Oct-17 22:00N 40°41' W 074°09'0 0.0
2017-Oct-17 21:30N 40°41' W 074°09'0 0.0
2017-Oct-17 21:00N 40°41' W 074°09'3 5.3
2017-Oct-17 20:30N 40°38' W 074°10'0 0.0
2017-Oct-17 20:00N 40°38' W 074°10'0 0.0
2017-Oct-17 19:30N 40°38' W 074°10'1 2.5
2017-Oct-17 19:00N 40°38' W 074°12'0 0.0
2017-Oct-17 18:30N 40°38' W 074°12'0 0.0
2017-Oct-17 18:00N 40°38' W 074°12'0 0.0
2017-Oct-17 17:30N 40°38' W 074°12'0 0.0
2017-Oct-17 17:00N 40°38' W 074°12'3 5.9
2017-Oct-17 16:30N 40°35' W 074°12'2 3.1
2017-Oct-17 15:58N 40°34' W 074°13'3 5.5
2017-Oct-17 15:30N 40°36' W 074°12'2 3.1
2017-Oct-17 15:00N 40°38' W 074°12'0 0.0
2017-Oct-17 14:30N 40°38' W 074°12'2 3.7
2017-Oct-17 14:00N 40°38' W 074°10'0 0.0
2017-Oct-17 13:30N 40°38' W 074°10'0 0.0
2017-Oct-17 13:00N 40°38' W 074°10'0 0.0
2017-Oct-17 12:30N 40°38' W 074°10'0 0.0
2017-Oct-17 12:00N 40°38' W 074°10'0 0.0
2017-Oct-17 11:30N 40°38' W 074°10'0 0.0
2017-Oct-17 11:00N 40°38' W 074°10'0 0.0
2017-Oct-17 10:30N 40°38' W 074°10'1 1.1
2017-Oct-17 10:00N 40°39' W 074°09'5 9.4
2017-Oct-17 09:30N 40°39' W 074°03'1 2.9
2017-Oct-17 09:00N 40°40' W 074°05'1 2.7
2017-Oct-17 08:30N 40°39' W 074°05'3 6.7
2017-Oct-17 08:00N 40°38' W 074°10'0 0.0
2017-Oct-17 07:30N 40°38' W 074°10'0 0.0
2017-Oct-17 07:00N 40°38' W 074°10'0 0.0
2017-Oct-17 06:30N 40°38' W 074°10'0 0.0
2017-Oct-17 06:00N 40°38' W 074°10'0 0.0
2017-Oct-17 05:31N 40°38' W 074°10'0 0.0
2017-Oct-17 05:00N 40°38' W 074°10'0 0.0
2017-Oct-17 04:30N 40°38' W 074°10'0 0.0
2017-Oct-17 04:00N 40°38' W 074°10'0 0.0
2017-Oct-17 03:30N 40°38' W 074°10'0 0.0
2017-Oct-17 02:59N 40°38' W 074°10'0 0.0
2017-Oct-17 02:31N 40°38' W 074°10'0 0.0
2017-Oct-17 02:00N 40°38' W 074°10'0 0.0
2017-Oct-17 01:30N 40°38' W 074°10'0 0.0
2017-Oct-17 01:00N 40°38' W 074°10'0 0.0
2017-Oct-17 00:30N 40°38' W 074°10'1 1.1
2017-Oct-17 00:00N 40°39' W 074°09'0 0.5
2017-Oct-16 23:30N 40°39' W 074°09'3 5.5
2017-Oct-16 23:00N 40°41' W 074°08'1 1.8
2017-Oct-16 22:30N 40°42' W 074°09'1 1.8
2017-Oct-16 22:00N 40°41' W 074°09'0 0.1
2017-Oct-16 21:30N 40°41' W 074°09'1 2.9
2017-Oct-16 21:00N 40°40' W 074°09'2 3.2
2017-Oct-16 20:30N 40°39' W 074°07'3 5.8
2017-Oct-16 20:00N 40°38' W 074°03'1 2.3
2017-Oct-16 19:30N 40°39' W 074°04'4 8.8
2017-Oct-16 19:00N 40°39' W 074°10'0 0.5
2017-Oct-16 18:30N 40°38' W 074°10'0 0.0
2017-Oct-16 18:00N 40°38' W 074°10'0 0.0
2017-Oct-16 17:30N 40°38' W 074°10'0 0.0
2017-Oct-16 17:00N 40°38' W 074°10'0 0.0
2017-Oct-16 16:29N 40°38' W 074°10'0 0.0
2017-Oct-16 16:00N 40°38' W 074°10'0 0.0
2017-Oct-16 15:31N 40°38' W 074°10'0 0.0
2017-Oct-16 15:00N 40°38' W 074°10'0 0.0
2017-Oct-16 14:30N 40°38' W 074°10'0 0.0
2017-Oct-16 13:30N 40°38' W 074°10'0 0.0
2017-Oct-16 13:00N 40°38' W 074°10'0 0.0
2017-Oct-16 12:30N 40°38' W 074°10'0 0.1
2017-Oct-16 12:00N 40°38' W 074°10'0 0.0
2017-Oct-16 11:30N 40°38' W 074°10'0 0.0
2017-Oct-16 11:00N 40°38' W 074°10'1 2.4
2017-Oct-16 10:29N 40°38' W 074°11'1 1.2
2017-Oct-16 10:00N 40°39' W 074°11'1 2.8
2017-Oct-16 09:30N 40°39' W 074°09'3 5.7
2017-Oct-16 09:00N 40°39' W 074°05'2 4.8
2017-Oct-16 08:30N 40°38' W 074°03'4 7.9
2017-Oct-16 08:00N 40°39' W 074°08'2 3.0
2017-Oct-16 07:30N 40°38' W 074°10'0 0.0
2017-Oct-16 07:00N 40°38' W 074°10'0 0.0
2017-Oct-16 06:30N 40°38' W 074°10'1 2.3
2017-Oct-16 06:00N 40°39' W 074°08'1 2.6
2017-Oct-16 05:30N 40°40' W 074°09'0 0.3
2017-Oct-16 05:00N 40°40' W 074°09'2 3.3
2017-Oct-16 04:29N 40°38' W 074°10'0 0.1
2017-Oct-16 04:00N 40°38' W 074°10'0 0.0
2017-Oct-16 03:30N 40°38' W 074°10'0 0.0
2017-Oct-16 03:00N 40°38' W 074°10'0 0.0
2017-Oct-16 02:30N 40°38' W 074°10'0 0.0
2017-Oct-16 02:00N 40°38' W 074°10'0 0.0
2017-Oct-16 01:30N 40°38' W 074°10'3 5.9
2017-Oct-16 01:00N 40°41' W 074°08'1 1.9
2017-Oct-16 00:30N 40°42' W 074°09'1 1.3
2017-Oct-16 00:00N 40°41' W 074°08'3 5.7
2017-Oct-15 23:30N 40°39' W 074°09'4 7.2
2017-Oct-15 23:00N 40°39' W 074°04'1 2.3
2017-Oct-15 22:30N 40°38' W 074°04'0 0.0
2017-Oct-15 22:00N 40°38' W 074°04'2 3.3
2017-Oct-15 21:30N 40°39' W 074°06'3 6.0
2017-Oct-15 21:00N 40°38' W 074°10'0 0.0
2017-Oct-15 20:30N 40°38' W 074°10'0 0.0
2017-Oct-15 20:00N 40°38' W 074°10'0 0.0
2017-Oct-15 19:30N 40°38' W 074°10'0 0.0
2017-Oct-15 19:00N 40°38' W 074°10'0 0.0
2017-Oct-15 18:30N 40°38' W 074°10'0 0.0
2017-Oct-15 18:00N 40°38' W 074°10'0 0.0
2017-Oct-15 17:30N 40°38' W 074°10'0 0.0
2017-Oct-15 17:00N 40°38' W 074°10'0 0.0
2017-Oct-15 16:30N 40°38' W 074°10'0 0.0
2017-Oct-15 16:00N 40°38' W 074°10'0 0.0
2017-Oct-15 15:30N 40°38' W 074°10'0 0.0
2017-Oct-15 15:00N 40°38' W 074°10'0 0.0
2017-Oct-15 14:00N 40°38' W 074°10'0 0.0
2017-Oct-15 13:30N 40°38' W 074°10'0 0.0
2017-Oct-15 13:00N 40°38' W 074°10'0 0.0
2017-Oct-15 12:30N 40°38' W 074°10'0 0.0
2017-Oct-15 12:00N 40°38' W 074°10'0 0.0
2017-Oct-15 11:30N 40°38' W 074°10'0 0.0
2017-Oct-15 11:00N 40°38' W 074°10'1 2.2
2017-Oct-15 10:31N 40°39' W 074°09'1 2.1
2017-Oct-15 10:00N 40°40' W 074°08'1 2.9
2017-Oct-15 09:30N 40°39' W 074°09'3 5.6
2017-Oct-15 09:01N 40°39' W 074°05'2 4.6
2017-Oct-15 08:30N 40°37' W 074°03'3 6.7
2017-Oct-15 08:00N 40°39' W 074°07'2 4.0
2017-Oct-15 07:30N 40°38' W 074°10'0 0.0
2017-Oct-15 07:00N 40°38' W 074°10'0 0.0
2017-Oct-15 06:30N 40°38' W 074°10'0 0.0
2017-Oct-15 06:00N 40°38' W 074°10'0 0.0
2017-Oct-15 05:30N 40°38' W 074°10'0 0.0
2017-Oct-15 05:00N 40°38' W 074°10'0 0.0
2017-Oct-15 04:30N 40°38' W 074°10'0 0.0
2017-Oct-15 04:00N 40°38' W 074°10'0 0.0
2017-Oct-15 03:30N 40°38' W 074°10'0 0.0
2017-Oct-15 03:00N 40°38' W 074°10'0 0.0
2017-Oct-15 02:30N 40°38' W 074°10'0 0.0
2017-Oct-15 02:00N 40°38' W 074°10'0 0.0
2017-Oct-15 01:30N 40°38' W 074°10'0 0.0
2017-Oct-15 01:00N 40°38' W 074°10'0 0.0
2017-Oct-15 00:30N 40°38' W 074°10'0 0.0
2017-Oct-15 00:00N 40°38' W 074°10'0 0.0
2017-Oct-14 23:30N 40°38' W 074°10'0 0.0
2017-Oct-14 23:00N 40°38' W 074°10'0 0.0
2017-Oct-14 22:31N 40°38' W 074°10'0 0.0
2017-Oct-14 22:00N 40°38' W 074°10'2 3.8
2017-Oct-14 21:30N 40°38' W 074°12'0 0.0
2017-Oct-14 21:00N 40°38' W 074°12'0 0.4
2017-Oct-14 20:30N 40°38' W 074°12'2 3.9
2017-Oct-14 19:59N 40°39' W 074°09'3 5.6
2017-Oct-14 19:29N 40°39' W 074°06'2 4.8
2017-Oct-14 19:00N 40°38' W 074°03'5 9.5
2017-Oct-14 18:30N 40°39' W 074°09'1 1.0
2017-Oct-14 18:00N 40°38' W 074°10'0 0.0
2017-Oct-14 17:30N 40°38' W 074°10'0 0.0
2017-Oct-14 17:00N 40°38' W 074°10'0 0.0
2017-Oct-14 16:30N 40°38' W 074°10'0 0.0
2017-Oct-14 16:00N 40°38' W 074°10'0 0.0
2017-Oct-14 15:30N 40°38' W 074°10'0 0.0
2017-Oct-14 15:00N 40°38' W 074°10'0 0.0
2017-Oct-14 14:30N 40°38' W 074°10'0 0.0
2017-Oct-14 14:00N 40°38' W 074°10'0 0.0
2017-Oct-14 13:30N 40°38' W 074°10'0 0.0
2017-Oct-14 12:59N 40°38' W 074°10'0 0.0
2017-Oct-14 12:30N 40°38' W 074°10'0 0.0
2017-Oct-14 12:00N 40°38' W 074°10'0 0.0
2017-Oct-14 11:30N 40°38' W 074°10'0 0.0
2017-Oct-14 11:00N 40°38' W 074°10'0 0.0
2017-Oct-14 10:30N 40°38' W 074°10'0 0.0
2017-Oct-14 10:00N 40°38' W 074°10'0 0.0
2017-Oct-14 09:30N 40°38' W 074°10'0 0.0
2017-Oct-14 09:00N 40°38' W 074°10'0 0.0
2017-Oct-14 08:31N 40°38' W 074°10'0 0.0
2017-Oct-14 08:00N 40°38' W 074°10'0 0.0
2017-Oct-14 07:30N 40°38' W 074°10'0 0.0
2017-Oct-14 07:00N 40°38' W 074°10'3 6.5
2017-Oct-14 06:30N 40°39' W 074°06'2 4.4
2017-Oct-14 06:00N 40°39' W 074°08'2 3.0
2017-Oct-14 05:30N 40°40' W 074°08'0 0.5
2017-Oct-14 05:00N 40°40' W 074°09'1 1.6
2017-Oct-14 04:30N 40°39' W 074°09'1 1.9
2017-Oct-14 04:00N 40°38' W 074°10'0 0.0
2017-Oct-14 03:30N 40°38' W 074°10'0 0.0
2017-Oct-14 03:00N 40°38' W 074°10'0 0.0
2017-Oct-14 02:30N 40°38' W 074°10'0 0.0
2017-Oct-14 01:46N 40°38' W 074°10'0 0.0
2017-Oct-14 01:30N 40°38' W 074°10'0 0.0
2017-Oct-14 00:56N 40°38' W 074°10'0 0.0
2017-Oct-14 00:27N 40°38' W 074°10'0 0.0
2017-Oct-14 00:00N 40°38' W 074°10'0 0.0
2017-Oct-13 23:27N 40°38' W 074°10'0 0.0
2017-Oct-13 22:49N 40°38' W 074°10'0 0.0
2017-Oct-13 22:30N 40°38' W 074°10'0 0.0
2017-Oct-13 22:00N 40°38' W 074°10'0 0.0
2017-Oct-13 21:30N 40°38' W 074°10'0 0.0
2017-Oct-13 21:00N 40°38' W 074°10'0 0.0
2017-Oct-13 20:30N 40°38' W 074°10'0 0.0
2017-Oct-13 20:00N 40°38' W 074°10'0 0.0
2017-Oct-13 19:29N 40°38' W 074°10'0 0.0
2017-Oct-13 19:00N 40°38' W 074°10'0 0.0
2017-Oct-13 18:30N 40°38' W 074°10'0 0.0
2017-Oct-13 18:00N 40°38' W 074°10'0 0.0
2017-Oct-13 17:30N 40°38' W 074°10'0 0.0
2017-Oct-13 17:00N 40°38' W 074°10'0 0.0
2017-Oct-13 16:30N 40°38' W 074°10'0 0.0
2017-Oct-13 16:00N 40°38' W 074°10'0 0.0
2017-Oct-13 15:30N 40°38' W 074°10'0 0.0
2017-Oct-13 14:59N 40°38' W 074°10'0 0.0
2017-Oct-13 14:30N 40°38' W 074°10'0 0.0
2017-Oct-13 14:00N 40°38' W 074°10'0 0.0
2017-Oct-13 13:30N 40°38' W 074°10'0 0.0
2017-Oct-13 13:00N 40°38' W 074°10'0 0.0
2017-Oct-13 12:31N 40°38' W 074°10'0 0.0
2017-Oct-13 12:00N 40°38' W 074°10'0 0.0
2017-Oct-13 11:30N 40°38' W 074°10'0 0.0
2017-Oct-13 11:00N 40°38' W 074°10'1 2.3
2017-Oct-13 10:30N 40°39' W 074°09'1 1.7
2017-Oct-13 10:00N 40°40' W 074°08'1 2.9
2017-Oct-13 09:30N 40°39' W 074°09'3 5.4
2017-Oct-13 09:00N 40°39' W 074°05'4 7.0
2017-Oct-13 08:30N 40°39' W 074°10'2 3.7
2017-Oct-13 08:00N 40°38' W 074°12'0 0.0
2017-Oct-13 07:30N 40°38' W 074°12'0 0.5
2017-Oct-13 07:00N 40°38' W 074°12'2 4.1
2017-Oct-13 06:30N 40°39' W 074°09'3 5.9
2017-Oct-13 06:00N 40°39' W 074°05'2 4.5
2017-Oct-13 05:30N 40°37' W 074°03'0 0.2
2017-Oct-13 05:00N 40°37' W 074°03'2 4.8
2017-Oct-13 04:30N 40°39' W 074°06'2 4.7
2017-Oct-13 04:00N 40°39' W 074°09'1 1.7
2017-Oct-13 03:30N 40°40' W 074°09'0 0.5
2017-Oct-13 03:00N 40°40' W 074°09'1 2.0
2017-Oct-13 02:30N 40°39' W 074°09'0 0.8
2017-Oct-13 02:00N 40°39' W 074°10'3 6.9
2017-Oct-13 01:30N 40°42' W 074°09'0 0.0
2017-Oct-13 00:59N 40°42' W 074°09'1 2.8
2017-Oct-13 00:30N 40°41' W 074°08'2 4.0
2017-Oct-13 00:00N 40°39' W 074°07'3 6.2
2017-Oct-12 23:30N 40°38' W 074°03'1 1.2
2017-Oct-12 23:00N 40°38' W 074°04'0 0.0
2017-Oct-12 22:30N 40°38' W 074°04'1 2.5
2017-Oct-12 22:00N 40°39' W 074°04'3 6.8
2017-Oct-12 21:30N 40°39' W 074°09'  

Dump ship's entire track history